Terminal Aerodrome Forecast
Issued by NWS Blacksburg, VA

Current Version | Previous Version | Graphics & Text | Print | Product List | Glossary On
Versions: 1 2 3 4 5 6 7 8 9 10 11 12
000
FTUS41 KRNK 161129
TAFBLF
TAF
KBLF 161129Z 1612/1712 33005KT P6SM FEW025
     FM161600 VRB04KT P6SM SKC
     FM170000 12006KT P6SM SKC=

USA.gov is the U.S. government's official web portal to all federal, state and local government web resources and services.